createdAt,value
2018-11-03T00:01:08.108Z,11.90
2018-11-03T00:03:35.543Z,12.40
2018-11-03T00:06:03.070Z,11.93
2018-11-03T00:08:30.500Z,11.47
2018-11-03T00:10:58.053Z,11.30
2018-11-03T00:13:25.503Z,10.87
2018-11-03T00:15:53.099Z,10.80
2018-11-03T00:18:20.534Z,10.77
2018-11-03T00:20:48.052Z,10.00
2018-11-03T00:23:15.470Z,10.20
2018-11-03T00:25:42.927Z,10.00
2018-11-03T00:28:10.390Z,10.33
2018-11-03T00:30:37.810Z,10.90
2018-11-03T00:33:05.371Z,10.60
2018-11-03T00:35:32.838Z,10.37
2018-11-03T00:38:00.386Z,10.70
2018-11-03T00:40:27.840Z,10.87
2018-11-03T00:42:55.443Z,10.50
2018-11-03T00:45:22.771Z,10.43
2018-11-03T00:47:50.268Z,10.80
2018-11-03T00:50:18.076Z,10.60
2018-11-03T00:52:45.535Z,9.93
2018-11-03T00:55:13.386Z,9.77
2018-11-03T00:57:41.263Z,10.20
2018-11-03T01:00:13.942Z,10.60
2018-11-03T01:02:42.841Z,10.07
2018-11-03T01:05:11.035Z,9.73
2018-11-03T01:07:39.499Z,10.10
2018-11-03T01:10:07.087Z,9.63
2018-11-03T01:12:35.343Z,11.07
2018-11-03T01:15:02.973Z,10.57
2018-11-03T01:17:30.555Z,11.30
2018-11-03T01:19:58.215Z,10.30
2018-11-03T01:22:25.659Z,10.80
2018-11-03T01:24:53.228Z,10.17
2018-11-03T01:27:20.895Z,10.77
2018-11-03T01:29:48.358Z,10.57
2018-11-03T01:32:15.798Z,10.00
2018-11-03T01:34:43.194Z,10.47
2018-11-03T01:37:10.610Z,10.80
2018-11-03T01:39:39.634Z,10.90
2018-11-03T01:42:07.126Z,9.90
2018-11-03T01:44:34.668Z,11.17
2018-11-03T01:47:02.159Z,11.03
2018-11-03T01:49:29.615Z,11.90
2018-11-03T01:51:57.023Z,11.07
2018-11-03T01:54:24.789Z,12.10
2018-11-03T01:56:52.210Z,11.00
2018-11-03T01:59:19.704Z,11.40
2018-11-03T02:01:47.111Z,11.77
2018-11-03T02:04:14.717Z,12.10
2018-11-03T02:06:42.156Z,12.23
2018-11-03T02:09:10.399Z,12.60
2018-11-03T02:11:37.822Z,11.60
2018-11-03T02:14:05.255Z,12.17
2018-11-03T02:16:32.741Z,12.87
2018-11-03T02:19:00.214Z,12.37
2018-11-03T02:21:27.679Z,11.57
2018-11-03T02:23:55.091Z,12.70
2018-11-03T02:26:22.677Z,13.80
2018-11-03T02:28:50.179Z,13.80
2018-11-03T02:31:17.620Z,14.23
2018-11-03T02:33:45.036Z,12.90
2018-11-03T02:36:12.808Z,13.90
2018-11-03T02:38:40.236Z,14.17
2018-11-03T02:41:07.681Z,13.67
2018-11-03T02:43:35.110Z,13.33
2018-11-03T02:46:03.851Z,13.43
2018-11-03T02:48:37.432Z,13.50
2018-11-03T02:51:04.886Z,13.77
2018-11-03T02:53:32.303Z,14.10
2018-11-03T02:55:59.900Z,13.93
2018-11-03T02:58:27.753Z,14.17
2018-11-03T03:00:55.310Z,14.83
2018-11-03T03:03:22.730Z,15.20
2018-11-03T03:05:50.160Z,14.07
2018-11-03T03:08:17.570Z,15.77
2018-11-03T03:10:45.118Z,15.50
2018-11-03T03:13:12.525Z,15.93
2018-11-03T03:15:39.972Z,15.97
2018-11-03T03:18:07.414Z,17.30
2018-11-03T03:20:34.833Z,17.80
2018-11-03T03:23:02.240Z,16.53
2018-11-03T03:25:29.742Z,15.47
2018-11-03T03:27:57.142Z,15.27
2018-11-03T03:30:24.594Z,13.90
2018-11-03T03:32:52.010Z,12.43
2018-11-03T03:35:23.234Z,11.30
2018-11-03T03:37:50.637Z,11.80
2018-11-03T03:40:18.066Z,11.43
2018-11-03T03:42:45.494Z,11.60
2018-11-03T03:45:12.892Z,12.40
2018-11-03T03:47:40.320Z,12.00
2018-11-03T03:50:08.652Z,11.97
2018-11-03T03:52:36.150Z,13.40
2018-11-03T03:55:03.595Z,12.60
2018-11-03T03:57:31.035Z,11.40
2018-11-03T03:59:58.481Z,12.67
2018-11-03T04:02:25.952Z,13.03
2018-11-03T04:04:53.442Z,13.40
2018-11-03T04:07:20.908Z,15.30
2018-11-03T04:09:48.322Z,14.20
2018-11-03T04:12:15.749Z,14.57
2018-11-03T04:14:43.161Z,14.00
2018-11-03T04:17:10.603Z,13.50
2018-11-03T04:19:38.051Z,13.73
2018-11-03T04:22:05.479Z,14.27
2018-11-03T04:24:32.879Z,13.73
2018-11-03T04:27:00.314Z,13.10
2018-11-03T04:29:27.725Z,13.70
2018-11-03T04:31:55.207Z,12.40
2018-11-03T04:34:22.603Z,12.00
2018-11-03T04:36:50.048Z,12.30
2018-11-03T04:39:17.580Z,13.00
2018-11-03T04:41:45.003Z,12.90
2018-11-03T04:44:12.434Z,12.90
2018-11-03T04:46:39.866Z,14.30
2018-11-03T04:49:07.260Z,12.53
2018-11-03T04:51:35.082Z,13.00
2018-11-03T04:54:02.504Z,14.30
2018-11-03T04:56:29.981Z,11.90
2018-11-03T04:58:57.734Z,12.97
2018-11-03T05:01:25.273Z,13.23
2018-11-03T05:03:52.851Z,13.73
2018-11-03T05:06:20.295Z,14.30
2018-11-03T05:08:47.728Z,13.47
2018-11-03T05:11:15.344Z,13.40
2018-11-03T05:13:42.828Z,12.80
2018-11-03T05:16:10.298Z,12.00
2018-11-03T05:18:37.750Z,12.17
2018-11-03T05:21:05.838Z,11.93
2018-11-03T05:23:33.407Z,12.43
2018-11-03T05:26:00.900Z,12.53
2018-11-03T05:28:28.458Z,12.00
2018-11-03T05:30:56.127Z,12.10
2018-11-03T05:33:23.502Z,12.80
2018-11-03T05:35:50.956Z,11.50
2018-11-03T05:38:18.375Z,11.70
2018-11-03T05:40:45.835Z,11.83
2018-11-03T05:43:13.243Z,12.07
2018-11-03T05:45:40.671Z,11.90
2018-11-03T05:48:08.087Z,12.60
2018-11-03T05:50:35.590Z,11.30
2018-11-03T05:53:03.000Z,11.87
2018-11-03T05:55:30.484Z,11.87
2018-11-03T05:57:57.909Z,11.20
2018-11-03T06:00:26.604Z,11.10
2018-11-03T06:02:54.778Z,11.43
2018-11-03T06:05:22.304Z,12.10
2018-11-03T06:07:49.703Z,12.70
2018-11-03T06:10:17.273Z,11.93
2018-11-03T06:12:44.675Z,12.10
2018-11-03T06:15:12.156Z,11.80
2018-11-03T06:17:39.568Z,12.03
2018-11-03T06:20:07.122Z,11.93
2018-11-03T06:22:34.934Z,12.10
2018-11-03T06:25:02.734Z,11.10
2018-11-03T06:27:30.290Z,13.30
2018-11-03T06:29:57.731Z,12.00
2018-11-03T06:32:25.132Z,11.60
2018-11-03T06:34:52.767Z,10.80
2018-11-03T06:37:20.218Z,11.47
2018-11-03T06:39:47.624Z,11.20
2018-11-03T06:42:15.057Z,11.30
2018-11-03T06:44:42.474Z,11.07
2018-11-03T06:47:09.944Z,10.73
2018-11-03T06:49:37.363Z,11.80
2018-11-03T06:52:05.101Z,11.47
2018-11-03T06:54:32.443Z,12.63
2018-11-03T06:56:59.914Z,11.47
2018-11-03T06:59:27.332Z,11.57
2018-11-03T07:01:54.745Z,12.07
2018-11-03T07:04:22.174Z,11.90
2018-11-03T07:06:49.607Z,12.83
2018-11-03T07:09:17.004Z,13.53
2018-11-03T07:11:44.624Z,14.20
2018-11-03T07:14:11.933Z,14.07
2018-11-03T07:16:39.387Z,14.70
2018-11-03T07:19:06.822Z,15.30
2018-11-03T07:21:34.700Z,13.77
2018-11-03T07:24:02.124Z,14.03
2018-11-03T07:26:29.546Z,13.27
2018-11-03T07:28:56.951Z,13.90
2018-11-03T07:31:24.392Z,12.87
2018-11-03T07:33:51.838Z,12.70
2018-11-03T07:36:19.390Z,12.40
2018-11-03T07:38:46.774Z,13.83
2018-11-03T07:41:14.220Z,12.90
2018-11-03T07:43:41.653Z,12.47
2018-11-03T07:46:09.077Z,11.40
2018-11-03T07:48:36.599Z,12.27
2018-11-03T07:51:04.007Z,12.03
2018-11-03T07:53:31.424Z,12.03
2018-11-03T07:55:58.855Z,12.30
2018-11-03T07:58:26.296Z,12.53
2018-11-03T08:00:53.733Z,13.67
2018-11-03T08:03:21.162Z,12.37
2018-11-03T08:05:48.759Z,13.20
2018-11-03T08:08:16.255Z,13.40
2018-11-03T08:10:43.785Z,14.30
2018-11-03T08:13:11.288Z,14.00
2018-11-03T08:15:38.742Z,14.97
2018-11-03T08:18:06.167Z,15.00
2018-11-03T08:20:33.589Z,16.03
2018-11-03T08:23:01.037Z,16.73
2018-11-03T08:25:28.460Z,16.13
2018-11-03T08:27:56.392Z,15.83
2018-11-03T08:30:23.891Z,16.57
2018-11-03T08:32:51.342Z,17.53
2018-11-03T08:35:18.740Z,16.63
2018-11-03T08:37:46.200Z,17.23
2018-11-03T08:40:13.613Z,17.50
2018-11-03T08:42:41.366Z,17.77
2018-11-03T08:45:15.540Z,18.27
2018-11-03T08:47:42.976Z,19.83
2018-11-03T08:50:11.286Z,20.00
2018-11-03T08:52:38.805Z,21.47
2018-11-03T08:55:07.241Z,21.07
2018-11-03T08:57:34.704Z,22.90
2018-11-03T09:00:02.243Z,24.00
2018-11-03T09:02:29.687Z,22.90
2018-11-03T09:04:57.089Z,22.77
2018-11-03T09:07:24.554Z,23.70
2018-11-03T09:09:52.003Z,22.33
2018-11-03T09:12:19.454Z,24.17
2018-11-03T09:14:46.912Z,23.23
2018-11-03T09:17:14.291Z,24.27
2018-11-03T09:19:41.740Z,23.07
2018-11-03T09:22:09.192Z,22.47
2018-11-03T09:24:36.610Z,21.83
2018-11-03T09:27:04.105Z,21.97
2018-11-03T09:29:31.519Z,22.67
2018-11-03T09:31:59.085Z,22.40
2018-11-03T09:34:26.436Z,22.20
2018-11-03T09:36:54.111Z,23.73
2018-11-03T09:39:21.648Z,22.13
2018-11-03T09:41:48.978Z,22.60
2018-11-03T09:44:16.423Z,22.73
2018-11-03T09:46:43.840Z,22.83
2018-11-03T09:49:11.287Z,23.30
2018-11-03T09:51:38.691Z,21.10
2018-11-03T09:54:06.157Z,19.07
2018-11-03T09:56:33.635Z,20.20
2018-11-03T09:59:01.197Z,19.87
2018-11-03T10:01:28.596Z,20.63
2018-11-03T10:03:56.135Z,19.80
2018-11-03T10:06:23.549Z,18.80
2018-11-03T10:08:51.022Z,19.20
2018-11-03T10:11:18.449Z,18.80
2018-11-03T10:13:45.885Z,19.20
2018-11-03T10:16:13.506Z,18.80
2018-11-03T10:18:40.954Z,19.60
2018-11-03T10:21:08.366Z,20.13
2018-11-03T10:23:35.921Z,20.27
2018-11-03T10:26:03.394Z,19.10
2018-11-03T10:28:30.865Z,20.10
2018-11-03T10:30:58.266Z,15.70
2018-11-03T10:33:25.730Z,17.10
2018-11-03T10:35:53.168Z,16.93
2018-11-03T10:38:20.593Z,16.20
2018-11-03T10:40:48.024Z,17.50
2018-11-03T10:43:15.486Z,16.33
2018-11-03T10:45:42.962Z,16.03
2018-11-03T10:48:10.391Z,15.57
2018-11-03T10:50:37.893Z,13.47
2018-11-03T10:53:05.509Z,13.73
2018-11-03T10:55:32.937Z,13.13
2018-11-03T10:58:00.453Z,12.70
2018-11-03T11:00:34.732Z,12.00
2018-11-03T11:03:07.990Z,12.63
2018-11-03T11:05:49.920Z,12.60
2018-11-03T11:08:22.991Z,11.60
2018-11-03T11:10:56.072Z,10.77
2018-11-03T11:13:25.090Z,12.03
2018-11-03T11:15:54.331Z,11.80
2018-11-03T11:18:21.912Z,11.10
2018-11-03T11:20:49.361Z,11.80
2018-11-03T11:23:16.821Z,12.10
2018-11-03T11:25:44.282Z,13.20
2018-11-03T11:28:11.732Z,11.90
2018-11-03T11:30:40.625Z,12.40
2018-11-03T11:33:09.969Z,11.77
2018-11-03T11:35:37.403Z,12.13
2018-11-03T11:38:05.722Z,13.17
2018-11-03T11:40:33.352Z,11.50
2018-11-03T11:43:00.894Z,11.47
2018-11-03T11:45:28.331Z,12.40
2018-11-03T11:47:55.908Z,11.93
2018-11-03T11:50:23.347Z,12.50
2018-11-03T11:52:51.084Z,11.87
2018-11-03T11:55:18.571Z,12.93
2018-11-03T11:57:46.043Z,13.10
2018-11-03T12:00:13.864Z,13.73
2018-11-03T12:02:41.356Z,13.00
2018-11-03T12:05:08.872Z,9.77
2018-11-03T12:07:36.406Z,10.53
2018-11-03T12:10:03.968Z,8.53
2018-11-03T12:12:31.357Z,5.57
2018-11-03T12:14:58.814Z,6.70
2018-11-03T12:17:26.243Z,6.27
2018-11-03T12:19:53.731Z,6.07
2018-11-03T12:22:21.215Z,5.70
2018-11-03T12:24:48.674Z,4.80
2018-11-03T12:27:16.138Z,4.90
2018-11-03T12:29:43.614Z,4.50
2018-11-03T12:32:11.096Z,4.37
2018-11-03T12:34:38.639Z,5.07
2018-11-03T12:37:06.299Z,5.00
2018-11-03T12:39:33.795Z,5.13
2018-11-03T12:42:01.294Z,5.40
2018-11-03T12:44:28.800Z,4.77
2018-11-03T12:46:56.268Z,4.70
2018-11-03T12:49:23.753Z,5.10
2018-11-03T12:51:51.247Z,4.87
2018-11-03T12:54:18.759Z,4.53
2018-11-03T12:56:46.183Z,4.70
2018-11-03T12:59:13.735Z,4.00
2018-11-03T13:01:41.120Z,4.07
2018-11-03T13:04:08.552Z,3.77
2018-11-03T13:06:36.008Z,4.20
2018-11-03T13:09:04.845Z,3.50
2018-11-03T13:11:32.283Z,3.33
2018-11-03T13:13:59.687Z,3.00
2018-11-03T13:16:27.338Z,3.07
2018-11-03T13:18:54.732Z,3.67
2018-11-03T13:21:22.178Z,3.10
2018-11-03T13:23:49.592Z,2.90
2018-11-03T13:26:17.024Z,2.73
2018-11-03T13:28:44.502Z,2.90
2018-11-03T13:31:11.939Z,2.10
2018-11-03T13:33:39.358Z,2.10
2018-11-03T13:36:07.153Z,2.13
2018-11-03T13:38:38.524Z,2.50
2018-11-03T13:41:06.008Z,2.80
2018-11-03T13:43:33.453Z,2.37
2018-11-03T13:46:01.004Z,2.10
2018-11-03T13:48:28.524Z,2.23
2018-11-03T13:50:55.978Z,2.30
2018-11-03T13:53:23.394Z,2.20
2018-11-03T13:55:50.859Z,2.83
2018-11-03T13:58:18.268Z,2.90
2018-11-03T14:00:45.692Z,2.43
2018-11-03T14:03:13.127Z,2.90
2018-11-03T14:05:40.549Z,2.33
2018-11-03T14:08:07.997Z,2.93
2018-11-03T14:10:35.421Z,1.90
2018-11-03T14:13:02.875Z,2.00
2018-11-03T14:15:30.298Z,1.80
2018-11-03T14:17:57.765Z,2.10
2018-11-03T14:20:25.225Z,2.40
2018-11-03T14:22:52.667Z,1.93
2018-11-03T14:25:20.108Z,2.10
2018-11-03T14:27:47.922Z,1.90
2018-11-03T14:30:15.519Z,2.17
2018-11-03T14:32:43.120Z,2.30
2018-11-03T14:35:11.147Z,1.90
2018-11-03T14:37:38.952Z,1.93
2018-11-03T14:40:08.727Z,2.10
2018-11-03T14:42:36.147Z,2.03
2018-11-03T14:45:03.976Z,2.60
2018-11-03T14:47:31.518Z,2.67
2018-11-03T14:50:02.266Z,2.50
2018-11-03T14:52:30.628Z,1.83
2018-11-03T14:54:58.042Z,2.07
2018-11-03T14:57:25.508Z,1.57
2018-11-03T14:59:52.933Z,1.60
2018-11-03T15:02:20.374Z,1.77
2018-11-03T15:04:47.772Z,2.00
2018-11-03T15:07:15.268Z,1.70
2018-11-03T15:09:42.684Z,1.70
2018-11-03T15:12:10.424Z,1.50
2018-11-03T15:14:37.866Z,1.67
2018-11-03T15:17:05.640Z,1.50
2018-11-03T15:19:33.073Z,1.70
2018-11-03T15:22:00.628Z,1.23
2018-11-03T15:24:28.062Z,1.70
2018-11-03T15:26:55.557Z,1.50
2018-11-03T15:29:23.006Z,2.13
2018-11-03T15:31:50.412Z,1.70
2018-11-03T15:34:17.917Z,1.90
2018-11-03T15:36:45.344Z,1.90
2018-11-03T15:39:12.771Z,1.80
2018-11-03T15:41:40.387Z,1.47
2018-11-03T15:44:07.847Z,1.87
2018-11-03T15:46:35.258Z,1.80
2018-11-03T15:49:02.703Z,1.53
2018-11-03T15:51:30.115Z,1.70
2018-11-03T15:53:57.582Z,1.77
2018-11-03T15:56:24.982Z,2.00
2018-11-03T15:58:52.427Z,1.53
2018-11-03T16:01:19.896Z,1.90
2018-11-03T16:03:47.349Z,1.80
2018-11-03T16:06:14.742Z,1.83
2018-11-03T16:08:42.160Z,2.40
2018-11-03T16:11:09.567Z,2.50
2018-11-03T16:13:36.996Z,2.47
2018-11-03T16:16:04.457Z,2.23
2018-11-03T16:18:31.940Z,2.10
2018-11-03T16:20:59.348Z,2.10
2018-11-03T16:23:27.042Z,2.87
2018-11-03T16:25:54.525Z,2.20
2018-11-03T16:28:22.112Z,2.47
2018-11-03T16:30:49.591Z,1.90
2018-11-03T16:33:17.010Z,2.50
2018-11-03T16:35:44.600Z,2.30
2018-11-03T16:38:11.858Z,2.27
2018-11-03T16:40:39.287Z,2.50
2018-11-03T16:43:06.695Z,2.13
2018-11-03T16:45:34.140Z,2.83
2018-11-03T16:48:01.567Z,2.40
2018-11-03T16:50:29.008Z,2.30
2018-11-03T16:52:56.407Z,2.87
2018-11-03T16:55:23.840Z,2.80
2018-11-03T16:57:51.235Z,2.73
2018-11-03T17:00:19.515Z,2.77
2018-11-03T17:02:46.957Z,2.60
2018-11-03T17:05:14.936Z,2.90
2018-11-03T17:07:42.381Z,2.30
2018-11-03T17:10:12.090Z,3.00
2018-11-03T17:12:40.917Z,3.37
2018-11-03T17:15:08.279Z,3.30
2018-11-03T17:17:35.672Z,3.40
2018-11-03T17:20:03.209Z,3.80
2018-11-03T17:22:30.633Z,3.80
2018-11-03T17:24:58.103Z,3.80
2018-11-03T17:27:25.719Z,4.00
2018-11-03T17:29:53.205Z,4.83
2018-11-03T17:32:20.691Z,4.23
2018-11-03T17:34:48.127Z,5.93
2018-11-03T17:37:15.947Z,6.77
2018-11-03T17:39:43.425Z,4.80
2018-11-03T17:42:10.870Z,5.40
2018-11-03T17:44:38.333Z,5.20
2018-11-03T17:47:06.140Z,5.80
2018-11-03T17:49:33.607Z,5.80
2018-11-03T17:52:01.019Z,6.37
2018-11-03T17:54:28.471Z,5.87
2018-11-03T17:56:55.940Z,6.17
2018-11-03T17:59:23.394Z,6.90
2018-11-03T18:01:50.956Z,7.30
2018-11-03T18:04:18.407Z,7.03
2018-11-03T18:06:45.866Z,6.90
2018-11-03T18:09:13.298Z,6.40
2018-11-03T18:11:40.743Z,6.50
2018-11-03T18:14:08.154Z,5.90
2018-11-03T18:16:35.682Z,6.70
2018-11-03T18:19:03.114Z,6.73
2018-11-03T18:21:30.556Z,7.30
2018-11-03T18:23:58.163Z,6.67
2018-11-03T18:26:25.639Z,7.43
2018-11-03T18:28:53.018Z,7.23
2018-11-03T18:31:20.482Z,7.47
2018-11-03T18:33:47.875Z,7.70
2018-11-03T18:36:15.305Z,7.93
2018-11-03T18:38:42.765Z,7.83
2018-11-03T18:41:10.225Z,8.03
2018-11-03T18:43:37.666Z,7.80
2018-11-03T18:46:05.276Z,8.40
2018-11-03T18:48:32.705Z,8.73
2018-11-03T18:51:00.140Z,9.40
2018-11-03T18:53:27.540Z,8.93
2018-11-03T18:55:55.022Z,8.97
2018-11-03T18:58:22.435Z,8.30
2018-11-03T19:00:49.966Z,7.90
2018-11-03T19:03:17.342Z,8.70
2018-11-03T19:05:44.765Z,8.33
2018-11-03T19:08:12.188Z,9.10
2018-11-03T19:10:39.666Z,10.00
2018-11-03T19:13:07.623Z,9.60
2018-11-03T19:15:35.061Z,10.10
2018-11-03T19:18:02.481Z,9.77
2018-11-03T19:20:29.991Z,10.53
2018-11-03T19:22:57.382Z,10.10
2018-11-03T19:25:24.858Z,10.40
2018-11-03T19:27:52.246Z,9.90
2018-11-03T19:30:19.849Z,10.00
2018-11-03T19:32:47.262Z,10.50
2018-11-03T19:35:14.659Z,9.97
2018-11-03T19:37:42.224Z,10.83
2018-11-03T19:40:11.049Z,10.10
2018-11-03T19:42:38.862Z,10.70
2018-11-03T19:45:06.289Z,10.63
2018-11-03T19:47:33.759Z,10.17
2018-11-03T19:50:01.151Z,10.60
2018-11-03T19:52:28.718Z,10.10
2018-11-03T19:54:56.198Z,10.47
2018-11-03T19:57:23.628Z,11.20
2018-11-03T19:59:51.136Z,10.90
2018-11-03T20:02:18.619Z,10.07
2018-11-03T20:04:46.018Z,11.30
2018-11-03T20:07:13.462Z,10.70
2018-11-03T20:09:42.577Z,10.17
2018-11-03T20:12:10.038Z,10.90
2018-11-03T20:14:37.451Z,11.13
2018-11-03T20:17:05.101Z,10.63
2018-11-03T20:19:32.500Z,10.40
2018-11-03T20:21:59.941Z,11.17
2018-11-03T20:24:27.372Z,10.97
2018-11-03T20:26:54.870Z,11.70
2018-11-03T20:29:22.312Z,11.40
2018-11-03T20:31:49.798Z,11.47
2018-11-03T20:34:17.166Z,10.90
2018-11-03T20:36:44.577Z,11.60
2018-11-03T20:39:11.982Z,12.17
2018-11-03T20:41:39.513Z,10.63
2018-11-03T20:44:06.881Z,11.30
2018-11-03T20:46:36.432Z,11.50
2018-11-03T20:49:03.868Z,12.20
2018-11-03T20:51:31.420Z,10.80
2018-11-03T20:53:58.947Z,10.90
2018-11-03T20:56:26.311Z,11.20
2018-11-03T20:58:53.724Z,11.57
2018-11-03T21:01:21.167Z,12.00
2018-11-03T21:03:48.635Z,9.93
2018-11-03T21:06:16.154Z,11.00
2018-11-03T21:08:43.645Z,10.80
2018-11-03T21:11:11.171Z,9.70
2018-11-03T21:13:38.718Z,9.47
2018-11-03T21:16:06.146Z,10.07
2018-11-03T21:18:33.572Z,10.80
2018-11-03T21:21:01.015Z,10.87
2018-11-03T21:23:28.526Z,10.37
2018-11-03T21:25:56.033Z,9.90
2018-11-03T21:28:23.587Z,10.63
2018-11-03T21:30:50.986Z,10.10
2018-11-03T21:33:18.520Z,10.03
2018-11-03T21:35:45.940Z,9.77
2018-11-03T21:38:13.374Z,16.93
2018-11-03T21:40:40.878Z,10.33
2018-11-03T21:43:08.337Z,10.50
2018-11-03T21:45:35.777Z,10.20
2018-11-03T21:48:03.235Z,10.13
2018-11-03T21:50:30.641Z,10.50
2018-11-03T21:52:58.091Z,10.10
2018-11-03T21:55:25.492Z,12.07
2018-11-03T21:57:52.918Z,11.03
2018-11-03T22:00:20.410Z,10.80
2018-11-03T22:02:47.884Z,11.43
2018-11-03T22:05:15.303Z,10.90
2018-11-03T22:07:43.213Z,11.03
2018-11-03T22:10:10.948Z,11.43
2018-11-03T22:12:39.118Z,11.20
2018-11-03T22:15:06.876Z,11.50
2018-11-03T22:17:34.316Z,11.30
2018-11-03T22:20:01.928Z,11.33
2018-11-03T22:22:29.359Z,11.20
2018-11-03T22:24:56.808Z,10.80
2018-11-03T22:27:24.202Z,10.80
2018-11-03T22:29:51.660Z,10.63
2018-11-03T22:32:19.083Z,11.03
2018-11-03T22:34:46.558Z,10.43
2018-11-03T22:37:14.008Z,9.80
2018-11-03T22:39:41.419Z,10.87
2018-11-03T22:42:09.024Z,10.23
2018-11-03T22:44:36.361Z,10.50
2018-11-03T22:47:03.999Z,10.97
2018-11-03T22:49:31.450Z,10.33
2018-11-03T22:51:59.003Z,9.73
2018-11-03T22:54:26.624Z,11.10
2018-11-03T22:56:54.124Z,11.20
2018-11-03T22:59:21.569Z,12.70
2018-11-03T23:01:49.051Z,10.40
2018-11-03T23:04:16.534Z,11.03
2018-11-03T23:06:43.996Z,10.30
2018-11-03T23:09:11.423Z,10.47
2018-11-03T23:11:38.869Z,11.20
2018-11-03T23:14:06.274Z,10.23
2018-11-03T23:16:33.753Z,10.30
2018-11-03T23:19:01.152Z,10.73
2018-11-03T23:21:28.617Z,10.67
2018-11-03T23:23:56.205Z,11.70
2018-11-03T23:26:24.064Z,12.87
2018-11-03T23:28:51.624Z,13.13
2018-11-03T23:31:19.079Z,13.47
2018-11-03T23:33:46.535Z,14.97
2018-11-03T23:36:13.993Z,15.70
2018-11-03T23:38:41.450Z,15.73
2018-11-03T23:41:08.859Z,14.50
2018-11-03T23:43:36.280Z,13.30
2018-11-03T23:46:03.783Z,13.60
2018-11-03T23:48:31.192Z,12.80
2018-11-03T23:50:58.633Z,11.87
2018-11-03T23:53:26.308Z,11.27
2018-11-03T23:55:53.831Z,11.30
2018-11-03T23:58:24.280Z,12.20
